Time;durP1;ratioP1;P1;durP2;ratioP2;P2;SDS_P1;SDS_P2;PMS_P1;PMS_P2;Temp;Humidity;BMP_temperature;BMP_pressure;BME280_temperature;BME280_humidity;BME280_pressure;Samples;Min_cycle;Max_cycle;Signal;HPM_P1;HPM_P2
2022/11/09 05:25:22;;;;;;;;;;;;;;;11.87;100.00;99841.72;5109886;28;20028;-66
2022/11/09 05:27:48;;;;;;;1.00;0.75;;;;;;;11.87;100.00;99845.22;5109348;28;19916;-67
2022/11/09 05:30:13;;;;;;;1.77;1.10;;;;;;;11.90;100.00;99849.31;5107781;28;20055;-67
2022/11/09 05:32:39;;;;;;;2.33;1.38;;;;;;;11.90;100.00;99844.81;5109256;28;20101;-66
2022/11/09 05:35:05;;;;;;;1.25;1.00;;;;;;;11.85;100.00;99857.06;5109796;28;20032;-66
2022/11/09 05:37:30;;;;;;;2.30;1.20;;;;;;;11.88;100.00;99878.06;5109313;28;20205;-67
2022/11/09 05:39:56;;;;;;;5.88;2.78;;;;;;;11.92;100.00;99901.50;5108140;28;20027;-66
2022/11/09 05:42:23;;;;;;;1.77;1.30;;;;;;;11.95;100.00;99892.28;5108599;28;20408;-66
2022/11/09 05:44:48;;;;;;;3.15;1.55;;;;;;;11.97;100.00;99900.94;5109177;28;20066;-65
2022/11/09 05:47:14;;;;;;;1.98;1.05;;;;;;;12.00;100.00;99886.34;5109109;28;20044;-66
2022/11/09 05:49:39;;;;;;;2.10;0.98;;;;;;;11.99;100.00;99890.88;5108977;28;20123;-66
2022/11/09 05:52:05;;;;;;;1.25;0.90;;;;;;;11.99;100.00;99887.38;5108665;28;20120;-66
2022/11/09 05:54:30;;;;;;;2.28;1.08;;;;;;;11.99;100.00;99906.88;5108812;28;20138;-66
2022/11/09 05:56:55;;;;;;;3.10;1.48;;;;;;;12.01;100.00;99920.91;5108799;28;20016;-65
2022/11/09 05:59:21;;;;;;;1.27;0.90;;;;;;;12.02;100.00;99922.53;5108775;28;20539;-65
2022/11/09 06:01:46;;;;;;;2.42;1.30;;;;;;;12.03;100.00;99918.84;5108395;28;20036;-65
2022/11/09 06:04:12;;;;;;;6.45;1.35;;;;;;;12.03;100.00;99921.53;5108764;28;20504;-66
2022/11/09 06:06:37;;;;;;;4.60;2.30;;;;;;;12.04;100.00;99912.50;5108528;28;20091;-66
2022/11/09 06:09:03;;;;;;;2.67;1.17;;;;;;;12.02;100.00;99921.72;5108503;28;20055;-66
2022/11/09 06:11:28;;;;;;;1.75;1.23;;;;;;;12.02;100.00;99933.22;5106925;28;20499;-66
2022/11/09 06:13:54;;;;;;;4.38;1.02;;;;;;;12.03;100.00;99929.53;5108467;28;20122;-66
2022/11/09 06:16:19;;;;;;;2.88;0.82;;;;;;;12.01;100.00;99923.56;5108548;28;20096;-65
2022/11/09 06:18:45;;;;;;;1.08;0.98;;;;;;;12.06;100.00;99928.31;5108348;28;20066;-66
2022/11/09 06:21:10;;;;;;;1.55;0.88;;;;;;;12.06;100.00;99928.31;5108020;28;20400;-66
2022/11/09 06:23:36;;;;;;;1.00;0.90;;;;;;;12.04;100.00;99930.34;5108489;28;20232;-66
2022/11/09 06:26:05;;;;;;;1.30;0.88;;;;;;;12.02;100.00;99927.88;5108185;28;20027;-66
2022/11/09 06:28:31;;;;;;;2.00;1.10;;;;;;;11.95;100.00;99909.13;5108290;28;20082;-65
2022/11/09 06:31:00;;;;;;;0.98;0.88;;;;;;;11.93;100.00;99907.66;5107687;28;20036;-73
2022/11/09 06:33:29;;;;;;;1.67;0.93;;;;;;;11.94;100.00;99912.81;5097522;28;20081;-73
2022/11/09 06:35:56;;;;;;;1.02;0.80;;;;;;;11.92;100.00;99906.81;5094585;28;20103;-73
2022/11/09 06:38:21;;;;;;;1.10;0.75;;;;;;;11.90;100.00;99919.53;5094548;28;20032;-73
2022/11/09 06:40:50;;;;;;;0.85;0.70;;;;;;;11.84;100.00;99916.81;5094082;28;20102;-72
2022/11/09 06:43:16;;;;;;;2.65;1.20;;;;;;;11.84;100.00;99919.47;5094472;28;20111;-72
2022/11/09 06:45:41;;;;;;;3.30;1.35;;;;;;;11.75;100.00;99913.41;5094260;28;20071;-73
2022/11/09 06:48:08;;;;;;;2.08;1.20;;;;;;;11.78;100.00;99921.03;5094455;28;20512;-72
2022/11/09 06:50:34;;;;;;;1.60;0.93;;;;;;;11.76;100.00;99912.38;5093847;28;20038;-73
2022/11/09 06:53:05;;;;;;;0.95;0.60;;;;;;;11.71;100.00;99913.97;5092982;28;20119;-73
2022/11/09 06:55:32;;;;;;;0.73;0.68;;;;;;;11.74;100.00;99934.94;5092769;28;20097;-73
2022/11/09 06:57:58;;;;;;;0.45;0.45;;;;;;;11.72;100.00;99923.63;5094048;28;20047;-72
2022/11/09 07:00:26;;;;;;;1.17;0.68;;;;;;;11.71;100.00;99932.63;5093688;28;20040;-72
2022/11/09 07:02:51;;;;;;;1.88;1.00;;;;;;;11.66;100.00;99928.69;5093850;28;20040;-72
2022/11/09 07:05:17;;;;;;;1.67;0.80;;;;;;;11.69;100.00;99935.50;5093764;28;20226;-72
2022/11/09 07:07:43;;;;;;;0.70;0.70;;;;;;;11.69;100.00;99932.84;5093861;28;20097;-72
2022/11/09 07:10:09;;;;;;;1.20;0.73;;;;;;;11.68;100.00;99933.84;5093670;28;20039;-72
2022/11/09 07:12:34;;;;;;;0.80;0.80;;;;;;;11.67;100.00;99951.72;5093590;28;20042;-72
2022/11/09 07:15:00;;;;;;;0.55;0.43;;;;;;;11.65;100.00;99947.56;5093493;28;20182;-72
2022/11/09 07:17:29;;;;;;;1.27;0.70;;;;;;;11.66;100.00;99952.69;5093683;28;20074;-72
2022/11/09 07:19:54;;;;;;;0.60;0.57;;;;;;;11.67;100.00;99945.50;5093539;28;20040;-72
2022/11/09 07:22:20;;;;;;;0.80;0.70;;;;;;;11.68;100.00;99948.03;5093300;28;20036;-72
2022/11/09 07:24:45;;;;;;;0.80;0.63;;;;;;;11.69;100.00;99938.16;5093757;28;20069;-73
2022/11/09 07:27:10;;;;;;;1.45;0.85;;;;;;;11.68;100.00;99929.34;5093520;28;20378;-72
2022/11/09 07:29:36;;;;;;;0.73;0.55;;;;;;;11.71;100.00;99935.31;5093357;28;20046;-73
2022/11/09 07:32:01;;;;;;;0.50;0.50;;;;;;;11.73;100.00;99930.59;5093023;28;20040;-72
2022/11/09 07:34:27;;;;;;;0.93;0.65;;;;;;;11.73;100.00;99919.94;5093269;28;20416;-73
2022/11/09 07:36:53;;;;;;;1.17;0.70;;;;;;;11.76;100.00;99911.56;5093165;28;20070;-73
2022/11/09 07:39:18;;;;;;;0.95;0.68;;;;;;;11.79;100.00;99908.50;5093208;28;20048;-72
2022/11/09 07:41:47;;;;;;;0.50;0.50;;;;;;;11.81;100.00;99906.53;5092912;28;20036;-72
2022/11/09 07:44:17;;;;;;;0.77;0.68;;;;;;;11.81;100.00;99903.84;5092129;28;20162;-72
2022/11/09 07:46:49;;;;;;;1.00;0.90;;;;;;;11.85;100.00;99905.94;5092906;28;20028;-72
2022/11/09 07:49:16;;;;;;;1.58;1.20;;;;;;;11.87;100.00;99898.59;5092913;28;20036;-72
2022/11/09 07:51:41;;;;;;;0.70;0.70;;;;;;;11.88;100.00;99891.41;5091211;28;20494;-73
2022/11/09 07:54:08;;;;;;;0.88;0.55;;;;;;;11.92;100.00;99901.50;5092927;28;20123;-73
2022/11/09 07:56:33;;;;;;;1.33;0.68;;;;;;;11.96;100.00;99901.94;5092931;28;20165;-73
2022/11/09 07:58:59;;;;;;;0.75;0.60;;;;;;;12.01;100.00;99907.53;5092781;28;20090;-72
2022/11/09 08:01:24;;;;;;;1.63;1.00;;;;;;;12.06;100.00;99918.50;5092529;28;20031;-72
2022/11/09 08:03:52;;;;;;;0.68;0.63;;;;;;;12.12;100.00;99914.19;5092703;28;20040;-73
2022/11/09 08:06:17;;;;;;;0.77;0.60;;;;;;;12.20;100.00;99917.59;5092619;28;20113;-73
2022/11/09 08:08:42;;;;;;;1.40;0.82;;;;;;;12.29;100.00;99918.28;5092805;28;20047;-72
2022/11/09 08:11:08;;;;;;;1.80;1.13;;;;;;;12.37;100.00;99931.47;5092229;28;20040;-72
2022/11/09 08:13:33;;;;;;;1.83;0.90;;;;;;;12.43;100.00;99937.91;5092635;28;20032;-72
2022/11/09 08:16:02;;;;;;;1.05;0.80;;;;;;;12.49;100.00;99940.63;5092390;28;20040;-72
2022/11/09 08:18:28;;;;;;;0.90;0.70;;;;;;;12.57;100.00;99945.00;5092501;28;20036;-72
2022/11/09 08:20:54;;;;;;;1.23;0.90;;;;;;;12.62;100.00;99950.59;5091990;28;20036;-72
2022/11/09 08:23:20;;;;;;;2.45;1.40;;;;;;;12.66;100.00;99948.38;5092389;28;20122;-71
2022/11/09 08:25:47;;;;;;;1.65;0.90;;;;;;;12.68;100.00;99957.03;5092216;28;20046;-72
2022/11/09 08:28:14;;;;;;;0.80;0.80;;;;;;;12.67;100.00;99953.53;5092354;28;20146;-72
2022/11/09 08:30:40;;;;;;;;;;;;;;;12.69;100.00;99959.50;5092266;28;20032;-72
2022/11/09 08:33:06;;;;;;;2.25;1.48;;;;;;;12.74;100.00;99953.56;5092094;28;20011;-73
2022/11/09 08:35:32;;;;;;;1.80;1.13;;;;;;;12.79;100.00;99958.34;5091928;28;20481;-73
2022/11/09 08:38:01;;;;;;;1.85;1.33;;;;;;;12.82;100.00;99956.09;5092113;28;20124;-72
2022/11/09 08:40:27;;;;;;;2.92;1.02;;;;;;;12.90;100.00;99953.25;5091787;28;20036;-72
2022/11/09 08:42:53;;;;;;;1.30;0.90;;;;;;;12.95;100.00;99948.16;5092117;28;20055;-73
2022/11/09 08:45:19;;;;;;;0.88;0.73;;;;;;;13.04;100.00;99954.22;5090583;28;20047;-72
2022/11/09 08:47:45;;;;;;;1.10;1.00;;;;;;;13.11;100.00;99949.72;5091877;28;20032;-73
2022/11/09 08:50:13;;;;;;;1.52;1.02;;;;;;;13.16;100.00;99952.59;5091707;28;20131;-72
2022/11/09 08:52:39;;;;;;;1.23;0.98;;;;;;;13.18;100.00;99950.59;5090578;28;20492;-73
2022/11/09 08:55:05;;;;;;;2.22;1.20;;;;;;;13.22;100.00;99949.19;5091535;28;20512;-73
2022/11/09 08:57:30;;;;;;;0.82;0.65;;;;;;;13.28;100.00;99952.91;5091670;28;20028;-72
2022/11/09 08:59:55;;;;;;;1.33;1.05;;;;;;;13.36;100.00;99957.28;5091596;28;20028;-72
2022/11/09 09:02:21;;;;;;;1.67;1.10;;;;;;;13.38;100.00;99957.91;5091401;28;20507;-72
2022/11/09 09:04:47;;;;;;;0.85;0.73;;;;;;;13.43;100.00;99964.34;5091698;28;20055;-73
2022/11/09 09:07:13;;;;;;;1.25;0.80;;;;;;;13.47;100.00;99968.25;5091524;28;20385;-73
2022/11/09 09:09:39;;;;;;;0.77;0.70;;;;;;;13.52;100.00;99964.97;5091718;28;20122;-72
2022/11/09 09:12:06;;;;;;;1.08;0.70;;;;;;;13.57;100.00;99975.91;5091239;28;20063;-73
2022/11/09 09:14:32;;;;;;;0.88;0.70;;;;;;;13.64;100.00;99981.28;5091601;28;20043;-73
2022/11/09 09:16:57;;;;;;;1.65;0.73;;;;;;;13.73;100.00;99975.56;5091419;28;20048;-72
2022/11/09 09:19:22;;;;;;;0.70;0.70;;;;;;;13.84;100.00;99974.16;5091757;28;20044;-72
2022/11/09 09:21:48;;;;;;;1.15;0.80;;;;;;;13.96;100.00;99979.78;5089843;28;20032;-72
2022/11/09 09:24:13;;;;;;;0.88;0.73;;;;;;;13.95;100.00;99968.19;5091523;28;20062;-72
2022/11/09 09:26:39;;;;;;;0.75;0.75;;;;;;;14.15;100.00;99967.44;5091511;28;20127;-72
2022/11/09 09:29:04;;;;;;;2.42;0.70;;;;;;;14.30;100.00;99976.13;5091502;28;20047;-73
2022/11/09 09:31:29;;;;;;;0.50;0.40;;;;;;;14.46;100.00;99972.22;5091026;28;20415;-73
2022/11/09 09:33:55;;;;;;;1.45;0.32;;;;;;;14.74;100.00;99972.06;5091421;28;20477;-73
2022/11/09 09:36:22;;;;;;;0.95;0.63;;;;;;;15.09;100.00;99975.31;5091356;28;20047;-73
2022/11/09 09:38:52;;;;;;;0.68;0.63;;;;;;;15.44;100.00;99987.41;5091431;28;20370;-72
2022/11/09 09:41:27;;;;;;;0.60;0.50;;;;;;;15.44;100.00;99986.59;5091139;28;20085;-72
2022/11/09 09:44:21;;;;;;;0.88;0.65;;;;;;;15.82;100.00;99985.88;5091414;28;20042;-73
2022/11/09 09:47:14;;;;;;;2.28;0.82;;;;;;;15.87;100.00;99981.50;5081116;28;20131;-72
2022/11/09 09:50:04;;;;;;;0.57;0.50;;;;;;;15.97;100.00;99983.72;5091346;28;20111;-73
2022/11/09 09:52:45;;;;;;;0.47;0.40;;;;;;;15.97;100.00;99983.72;5088131;28;20051;-73
2022/11/09 09:55:10;;;;;;;1.05;0.60;;;;;;;15.88;100.00;99979.63;5091250;28;20044;-73
2022/11/09 09:57:36;;;;;;;1.38;0.57;;;;;;;15.81;100.00;99994.97;5091294;28;20047;-73
2022/11/09 10:00:08;;;;;;;0.57;0.38;;;;;;;16.10;100.00;99996.25;5090854;28;20028;-72
2022/11/09 10:02:37;;;;;;;0.20;0.20;;;;;;;16.41;100.00;99990.06;5091294;28;20484;-73
2022/11/09 10:05:08;;;;;;;1.08;0.50;;;;;;;16.64;100.00;100001.09;5089871;28;20131;-74
2022/11/09 10:07:45;;;;;;;0.63;0.30;;;;;;;16.73;100.00;99999.78;5091989;28;20028;-73
2022/11/09 10:10:45;;;;;;;0.40;0.40;;;;;;;17.22;100.00;100002.69;5094742;28;20036;-73
2022/11/09 10:13:34;;;;;;;0.82;0.50;;;;;;;17.46;100.00;100004.47;5075552;28;20133;-73
2022/11/09 10:16:30;;;;;;;1.80;0.50;;;;;;;17.50;98.20;99989.53;5094823;28;20032;-73
2022/11/09 10:19:11;;;;;;;0.15;0.15;;;;;;;17.71;98.57;99993.66;5094730;28;20039;-73
2022/11/09 10:21:41;;;;;;;0.52;0.40;;;;;;;17.65;90.03;99989.13;5094454;28;20040;-73
2022/11/09 10:24:44;;;;;;;0.85;0.65;;;;;;;17.72;93.14;99991.78;5094753;28;20422;-73
2022/11/09 10:27:21;;;;;;;0.65;0.50;;;;;;;17.84;93.22;99984.59;5094571;28;20035;-73
2022/11/09 10:29:49;;;;;;;0.77;0.47;;;;;;;17.63;93.91;99992.06;5094706;28;20114;-73
2022/11/09 10:32:19;;;;;;;0.47;0.43;;;;;;;17.55;91.19;99997.75;5094186;28;20138;-73
2022/11/09 10:34:51;;;;;;;0.57;0.40;;;;;;;17.37;94.14;99984.28;5094588;28;20055;-74
2022/11/09 10:37:42;;;;;;;0.55;0.40;;;;;;;17.42;93.96;99984.44;5094429;28;20039;-73
2022/11/09 10:40:08;;;;;;;0.40;0.40;;;;;;;17.45;94.25;99986.69;5094203;28;20065;-73
2022/11/09 10:42:58;;;;;;;0.70;0.45;;;;;;;17.49;93.49;99977.13;5094699;28;20088;-74
2022/11/09 10:45:44;;;;;;;0.98;0.60;;;;;;;17.69;94.48;99979.56;5094158;28;20085;-73
2022/11/09 10:48:32;;;;;;;0.90;0.50;;;;;;;18.10;93.33;99976.16;5094285;28;20074;-74
2022/11/09 10:51:41;;;;;;;0.95;0.80;;;;;;;18.38;89.41;99974.69;5094047;28;20451;-74
2022/11/09 10:54:33;;;;;;;0.60;0.50;;;;;;;18.51;89.08;99973.69;5094106;28;20070;-74
2022/11/09 10:57:20;;;;;;;1.30;0.40;;;;;;;18.68;86.36;99980.91;5094086;28;20078;-74
2022/11/09 11:00:12;;;;;;;1.35;0.60;;;;;;;18.38;86.43;99974.69;5094035;28;20131;-73
2022/11/09 11:02:56;;;;;;;1.38;0.50;;;;;;;18.16;87.02;99974.41;5093957;28;20047;-74
2022/11/09 11:05:40;;;;;;;0.63;0.52;;;;;;;18.01;88.60;99982.09;5094226;28;20203;-74
2022/11/09 11:08:31;;;;;;;0.93;0.60;;;;;;;18.07;88.15;99975.78;5094018;28;20058;-74
2022/11/09 11:11:25;;;;;;;1.00;0.60;;;;;;;18.04;88.90;99974.38;5093799;28;20097;-74
2022/11/09 11:14:22;;;;;;;1.92;0.85;;;;;;;18.40;86.58;99968.03;5093909;28;20054;-74
2022/11/09 11:17:22;;;;;;;0.90;0.88;;;;;;;18.16;88.66;99974.41;5094027;28;20054;-74
2022/11/09 11:20:24;;;;;;;2.30;0.80;;;;;;;18.31;85.85;99968.59;5093518;28;20440;-74
2022/11/09 11:23:08;;;;;;;0.47;0.47;;;;;;;18.37;84.71;99973.06;5093962;28;20604;-73
2022/11/09 11:25:52;;;;;;;0.57;0.57;;;;;;;18.45;84.96;99972.72;5093555;28;20408;-73
2022/11/09 11:28:45;;;;;;;1.10;0.77;;;;;;;18.41;85.11;99963.47;5093579;28;20511;-74
2022/11/09 11:31:29;;;;;;;0.60;0.60;;;;;;;18.41;86.60;99966.97;5093105;28;20102;-74
2022/11/09 11:34:14;;;;;;;0.90;0.82;;;;;;;18.28;86.79;99964.50;5093658;28;20067;-74
2022/11/09 11:37:30;;;;;;;0.52;0.52;;;;;;;17.90;87.30;99962.94;5103745;22;20397;-64
2022/11/09 11:40:17;;;;;;;;;;;;;;;17.75;88.40;99969.81;5073812;28;20051;-66
2022/11/09 11:43:20;;;;;;;;;;;;;;;17.65;89.87;99970.28;5073040;28;19957;-66
2022/11/09 11:46:19;;;;;;;1.35;0.60;;;;;;;17.36;91.46;99974.56;5072656;28;19938;-66
2022/11/09 11:49:21;;;;;;;1.30;0.77;;;;;;;17.34;90.43;99971.25;5073366;28;20098;-67
2022/11/09 11:52:19;;;;;;;1.45;0.75;;;;;;;17.27;92.21;99962.44;5072682;28;20558;-66
2022/11/09 11:55:08;;;;;;;0.77;0.77;;;;;;;17.38;91.64;99969.78;5073027;28;20047;-66
2022/11/09 11:58:11;;;;;;;1.00;0.90;;;;;;;17.51;91.48;99972.31;5071951;28;20515;-66
2022/11/09 12:01:22;;;;;;;1.50;0.85;;;;;;;17.55;91.56;99967.31;5072659;28;20047;-66
2022/11/09 12:04:41;;;;;;;1.75;0.70;;;;;;;17.73;91.52;99977.25;5072893;28;20554;-66
2022/11/09 12:07:33;;;;;;;0.95;0.75;;;;;;;17.79;90.76;99965.59;5072697;28;20055;-66
2022/11/09 12:10:30;;;;;;;1.02;0.75;;;;;;;17.70;90.49;99972.31;5072436;28;20105;-66
2022/11/09 12:13:33;;;;;;;0.68;0.68;;;;;;;17.58;90.07;99962.28;5072644;28;20079;-67
2022/11/09 12:16:33;;;;;;;1.80;0.70;;;;;;;17.39;91.44;99966.03;5072667;28;20520;-66
2022/11/09 12:19:47;;;;;;;1.10;0.90;;;;;;;17.16;91.70;99960.50;5072545;28;20121;-66
2022/11/09 12:23:02;;;;;;;1.55;0.93;;;;;;;16.84;94.44;99959.78;5072341;28;20125;-66
2022/11/09 12:26:02;;;;;;;0.95;0.82;;;;;;;16.87;93.74;99959.31;5072348;28;20048;-66
2022/11/09 12:29:11;;;;;;;2.40;0.85;;;;;;;17.00;94.17;99953.81;5072317;28;20047;-66
2022/11/09 12:31:58;;;;;;;0.70;0.63;;;;;;;16.78;95.50;99958.78;5071559;28;20067;-66
2022/11/09 12:35:05;;;;;;;3.67;1.15;;;;;;;16.79;95.69;99955.06;5072360;28;20118;-66
2022/11/09 12:37:54;;;;;;;;;;;;;;;16.77;95.69;99954.47;5058593;28;20051;-66
2022/11/09 12:40:43;;;;;;;0.90;0.80;;;;;;;16.65;96.70;99954.31;5072099;28;19958;-65
2022/11/09 12:43:41;;;;;;;0.80;0.80;;;;;;;16.60;94.79;99950.63;5072208;28;20046;-66
2022/11/09 12:46:31;;;;;;;1.83;1.10;;;;;;;16.54;95.29;99960.41;5071026;28;20055;-66
2022/11/09 12:49:31;;;;;;;1.25;0.90;;;;;;;16.42;97.40;99957.59;5072368;28;20095;-66
2022/11/09 12:52:19;;;;;;;1.90;1.13;;;;;;;16.36;97.85;99963.00;5071576;28;20046;-66
2022/11/09 12:55:04;;;;;;;3.70;2.00;;;;;;;16.26;98.00;99958.13;5072008;28;20075;-66
2022/11/09 12:57:49;;;;;;;1.02;0.85;;;;;;;16.32;98.37;99962.66;5072053;28;20050;-66
2022/11/09 13:00:33;;;;;;;2.63;1.00;;;;;;;16.24;97.61;99962.91;5071673;28;20129;-66
2022/11/09 13:03:21;;;;;;;1.08;0.80;;;;;;;16.31;97.74;99968.25;5071906;28;20075;-66
2022/11/09 13:06:23;;;;;;;1.95;1.23;;;;;;;16.19;98.03;99976.16;5072111;28;20075;-67
2022/11/09 13:09:23;;;;;;;2.42;1.20;;;;;;;16.23;98.96;99966.63;5072211;28;20090;-66
2022/11/09 13:12:31;;;;;;;1.45;1.10;;;;;;;16.13;98.93;99982.41;5061176;28;20110;-67
2022/11/09 13:15:24;;;;;;;2.13;1.30;;;;;;;15.99;100.00;99977.09;5060664;28;20082;-67
2022/11/09 13:18:44;;;;;;;1.83;1.10;;;;;;;16.06;99.68;99982.44;5061593;28;20466;-67
2022/11/09 13:21:28;;;;;;;1.00;0.90;;;;;;;15.89;100.00;99982.09;5058692;28;20513;-66
2022/11/09 13:24:51;;;;;;;1.00;0.90;;;;;;;15.95;100.00;99981.25;5051920;28;20090;-67
2022/11/09 13:27:43;;;;;;;1.27;1.00;;;;;;;15.83;100.00;99988.31;5060266;28;20069;-66
2022/11/09 13:30:30;;;;;;;1.60;1.25;;;;;;;15.83;100.00;99985.66;5054975;28;20052;-67
2022/11/09 13:33:14;;;;;;;2.00;1.40;;;;;;;15.72;100.00;99989.84;5059073;28;20214;-66
2022/11/09 13:36:07;;;;;;;1.90;1.08;;;;;;;15.76;100.00;99987.53;5059507;28;20104;-67
2022/11/09 13:39:22;;;;;;;2.72;1.20;;;;;;;15.79;100.00;99997.03;5061057;28;20043;-67
2022/11/09 13:42:25;;;;;;;1.75;1.20;;;;;;;15.70;100.00;99991.88;5068454;28;20082;-67
2022/11/09 13:45:33;;;;;;;1.38;1.10;;;;;;;15.69;100.00;99990.25;5075546;28;20048;-67
2022/11/09 13:48:34;;;;;;;1.20;1.10;;;;;;;15.65;100.00;99991.72;5075717;28;20086;-67
2022/11/09 13:51:36;;;;;;;1.80;1.30;;;;;;;15.57;100.00;99999.97;5075000;28;20048;-67
2022/11/09 13:54:28;;;;;;;1.88;1.13;;;;;;;15.44;100.00;99989.25;5072415;28;20047;-67
2022/11/09 13:57:12;;;;;;;4.07;1.45;;;;;;;15.46;100.00;99997.97;5063824;28;20116;-66
2022/11/09 13:59:58;;;;;;;2.05;1.27;;;;;;;15.38;100.00;99998.16;5064516;28;20044;-65
2022/11/09 14:02:54;;;;;;;3.40;1.35;;;;;;;15.33;100.00;100001.50;5064870;28;20566;-64
2022/11/09 14:05:40;;;;;;;1.40;1.00;;;;;;;15.34;100.00;100005.81;5060140;28;20089;-65
2022/11/09 14:08:34;;;;;;;2.80;1.20;;;;;;;15.34;100.00;100013.88;5065204;28;20524;-65
2022/11/09 14:11:34;;;;;;;1.60;1.00;;;;;;;15.29;100.00;100016.34;5063415;28;20060;-65
2022/11/09 14:14:37;;;;;;;1.52;1.10;;;;;;;15.19;100.00;100024.84;5063363;28;20101;-65
2022/11/09 14:17:55;;;;;;;1.48;1.23;;;;;;;15.10;100.00;100026.06;5068063;28;20081;-64
2022/11/09 14:20:56;;;;;;;2.42;1.35;;;;;;;15.09;100.00;100020.94;5074582;28;20044;-63
2022/11/09 14:23:40;;;;;;;1.20;1.10;;;;;;;15.08;100.00;100027.34;5074803;28;20105;-65
2022/11/09 14:26:25;;;;;;;3.45;1.08;;;;;;;15.03;100.00;100030.63;5073504;28;20518;-63
2022/11/09 14:29:23;;;;;;;1.67;1.15;;;;;;;14.95;100.00;100035.38;5075074;28;20059;-65
2022/11/09 14:32:24;;;;;;;3.05;1.30;;;;;;;14.86;100.00;100034.75;5074241;28;20052;-64
2022/11/09 14:35:32;;;;;;;3.78;1.27;;;;;;;14.78;100.00;100038.47;5074642;28;20059;-64
2022/11/09 14:38:19;;;;;;;2.90;1.63;;;;;;;14.77;100.00;100039.50;5075215;28;20114;-65
2022/11/09 14:41:04;;;;;;;1.70;1.50;;;;;;;14.72;100.00;100039.28;5073847;28;20106;-64
2022/11/09 14:43:49;;;;;;;1.95;1.33;;;;;;;14.67;100.00;100039.09;5074347;28;20059;-64
2022/11/09 14:46:33;;;;;;;2.03;1.45;;;;;;;14.72;100.00;100043.81;5059337;28;20055;-64
2022/11/09 14:49:18;;;;;;;1.80;1.40;;;;;;;14.57;100.00;100050.19;5074546;28;20098;-63
2022/11/09 14:52:02;;;;;;;1.30;1.20;;;;;;;14.57;100.00;100044.00;5073867;28;20051;-64
2022/11/09 14:54:48;;;;;;;1.63;1.27;;;;;;;14.53;100.00;100042.75;5072636;28;20136;-66
2022/11/09 14:57:32;;;;;;;2.85;1.52;;;;;;;14.47;100.00;100044.41;5074130;28;20109;-64
2022/11/09 15:00:24;;;;;;;2.65;1.58;;;;;;;14.48;100.00;100058.66;5073797;28;20046;-64
2022/11/09 15:03:25;;;;;;;1.95;1.42;;;;;;;14.42;100.00;100054.88;5074162;28;20585;-64
2022/11/09 15:06:13;;;;;;;2.72;1.65;;;;;;;14.39;100.00;100061.47;5074246;28;20534;-63
2022/11/09 15:09:00;;;;;;;2.22;1.63;;;;;;;14.35;100.00;100051.38;5074251;28;20054;-64
2022/11/09 15:11:45;;;;;;;5.32;1.58;;;;;;;14.33;100.00;100056.09;5073644;28;20079;-63
2022/11/09 15:14:32;;;;;;;2.10;1.35;;;;;;;14.27;100.00;100049.69;5074323;28;20042;-64
2022/11/09 15:17:31;;;;;;;2.05;1.30;;;;;;;14.23;100.00;100050.31;5073741;28;20078;-63
2022/11/09 15:20:15;;;;;;;1.75;1.45;;;;;;;14.23;100.00;100051.13;5073472;28;20043;-64
2022/11/09 15:23:05;;;;;;;2.42;1.40;;;;;;;14.21;100.00;100042.44;5073771;28;20507;-64
2022/11/09 15:25:49;;;;;;;2.25;1.50;;;;;;;14.13;100.00;100040.78;5073693;28;20102;-63
2022/11/09 15:28:43;;;;;;;1.83;1.20;;;;;;;14.12;100.00;100032.94;5073574;28;20550;-65
2022/11/09 15:31:27;;;;;;;1.75;1.25;;;;;;;14.07;100.00;100027.38;5073185;28;20459;-65
2022/11/09 15:34:23;;;;;;;1.42;1.20;;;;;;;14.07;100.00;100022.84;5073758;28;20053;-66
2022/11/09 15:37:27;;;;;;;4.65;1.23;;;;;;;14.01;100.00;100026.31;5072201;28;20102;-63
2022/11/09 15:40:16;;;;;;;2.13;1.40;;;;;;;13.92;100.00;100024.03;5073379;28;20206;-65
2022/11/09 15:43:00;;;;;;;1.50;1.15;;;;;;;13.82;100.00;100013.69;5073334;28;20047;-64
2022/11/09 15:45:44;;;;;;;1.33;0.98;;;;;;;13.78;100.00;100010.59;5073436;28;20059;-65
2022/11/09 15:48:28;;;;;;;1.98;1.38;;;;;;;13.77;100.00;100013.47;5073212;28;20064;-65
2022/11/09 15:51:13;;;;;;;1.80;1.00;;;;;;;13.75;100.00;100012.81;5072860;28;20473;-65
2022/11/09 15:53:57;;;;;;;1.23;1.05;;;;;;;13.76;100.00;100009.97;5072951;28;20051;-66
2022/11/09 15:56:42;;;;;;;4.60;1.52;;;;;;;13.72;100.00;100022.09;5073126;28;20117;-65
2022/11/09 15:59:26;;;;;;;1.10;1.00;;;;;;;13.72;100.00;100029.28;5073273;28;20462;-65
2022/11/09 16:02:11;;;;;;;1.85;1.33;;;;;;;13.68;100.00;100031.53;5071809;28;20177;-66
2022/11/09 16:04:55;;;;;;;2.58;1.38;;;;;;;13.66;100.00;100032.78;5072501;28;20098;-65
2022/11/09 16:07:50;;;;;;;2.90;1.65;;;;;;;13.65;100.00;100036.47;5072968;28;20585;-65
2022/11/09 16:10:38;;;;;;;1.30;1.00;;;;;;;13.65;100.00;100037.28;5072084;28;20083;-65
2022/11/09 16:13:22;;;;;;;2.25;1.13;;;;;;;13.60;100.00;100046.94;5072664;28;20377;-66
2022/11/09 16:16:08;;;;;;;2.67;1.27;;;;;;;13.57;100.00;100051.66;5071454;28;20118;-65
2022/11/09 16:18:53;;;;;;;1.08;1.00;;;;;;;13.56;100.00;100063.41;5072504;28;20059;-65
2022/11/09 16:21:37;;;;;;;1.58;1.20;;;;;;;13.56;100.00;100062.56;5072545;28;20051;-65
2022/11/09 16:24:21;;;;;;;1.48;0.90;;;;;;;13.58;100.00;100069.38;5071550;28;20520;-56
2022/11/09 16:27:07;;;;;;;2.72;1.17;;;;;;;13.55;100.00;100069.75;5072402;28;20118;-54
2022/11/09 16:29:51;;;;;;;1.52;1.38;;;;;;;13.53;100.00;100074.47;5072377;28;20056;-54
2022/11/09 16:32:36;;;;;;;3.40;1.63;;;;;;;13.52;100.00;100082.72;5071151;28;20051;-58
2022/11/09 16:35:22;;;;;;;1.85;1.48;;;;;;;13.51;100.00;100089.09;5072341;28;20067;-59
2022/11/09 16:38:06;;;;;;;2.17;1.67;;;;;;;13.48;100.00;100089.47;5072279;28;20094;-66
2022/11/09 16:40:50;;;;;;;1.55;1.20;;;;;;;13.44;100.00;100091.72;5071950;28;20056;-67
2022/11/09 16:43:35;;;;;;;1.90;1.23;;;;;;;13.42;100.00;100104.44;5072242;28;20413;-66
2022/11/09 16:46:26;;;;;;;1.05;0.95;;;;;;;13.42;100.00;100103.63;5072182;28;20409;-66
2022/11/09 16:49:10;;;;;;;1.48;1.10;;;;;;;13.43;100.00;100102.59;5072372;28;20117;-66
2022/11/09 16:51:55;;;;;;;1.58;1.02;;;;;;;13.39;100.00;100112.88;5071682;28;20190;-66
2022/11/09 16:54:39;;;;;;;2.13;1.27;;;;;;;13.40;100.00;100119.88;5072057;28;20104;-66
2022/11/09 16:57:22;;;;;;;1.33;1.15;;;;;;;13.39;100.00;100112.88;5072212;28;20055;-66
2022/11/09 17:00:11;;;;;;;2.13;1.20;;;;;;;13.39;100.00;100128.09;5071885;28;20060;-66
2022/11/09 17:02:55;;;;;;;1.27;1.17;;;;;;;13.36;100.00;100121.28;5071890;28;20039;-66
2022/11/09 17:05:40;;;;;;;1.45;1.10;;;;;;;13.32;100.00;100140.59;5072279;28;20047;-66
2022/11/09 17:08:24;;;;;;;1.17;1.02;;;;;;;13.34;100.00;100136.72;5072247;28;20043;-66
2022/11/09 17:11:10;;;;;;;1.38;0.93;;;;;;;13.31;100.00;100142.47;5071480;28;20048;-67
2022/11/09 17:13:56;;;;;;;1.98;1.42;;;;;;;13.28;100.00;100140.97;5071879;28;20055;-66
2022/11/09 17:16:41;;;;;;;2.83;1.42;;;;;;;13.28;100.00;100148.19;5071579;28;20097;-65
2022/11/09 17:19:30;;;;;;;2.17;1.27;;;;;;;13.25;100.00;100152.06;5072538;28;20067;-66
2022/11/09 17:22:15;;;;;;;0.75;0.75;;;;;;;13.24;100.00;100146.94;5071502;28;20043;-66
2022/11/09 17:24:58;;;;;;;1.75;1.10;;;;;;;13.23;100.00;100155.94;5056817;28;20141;-66
2022/11/09 17:27:42;;;;;;;1.23;0.98;;;;;;;13.19;100.00;100152.00;5070443;28;20051;-67
2022/11/09 17:30:26;;;;;;;1.60;1.23;;;;;;;13.20;100.00;100165.19;5071394;28;20170;-66
2022/11/09 17:33:10;;;;;;;1.88;1.27;;;;;;;13.16;100.00;100160.38;5071918;28;20520;-66
2022/11/09 17:36:03;;;;;;;1.85;1.30;;;;;;;13.16;100.00;100163.06;5095550;22;20058;-73
2022/11/09 17:38:47;;;;;;;2.45;1.85;;;;;;;13.15;100.00;100170.25;5009886;28;20142;-73
2022/11/09 17:41:31;;;;;;;1.98;1.63;;;;;;;13.12;100.00;100159.13;5011459;28;20093;-73
2022/11/09 17:44:15;;;;;;;3.70;2.08;;;;;;;13.10;100.00;100172.66;5011297;28;20053;-73
2022/11/09 17:46:59;;;;;;;3.45;1.98;;;;;;;13.06;100.00;100174.09;5010708;28;20157;-74
2022/11/09 17:49:43;;;;;;;2.92;1.80;;;;;;;13.02;100.00;100183.50;5011405;28;20418;-74
2022/11/09 17:52:27;;;;;;;2.95;1.80;;;;;;;13.01;100.00;100187.19;5011250;28;20092;-74
2022/11/09 17:55:11;;;;;;;4.38;1.80;;;;;;;13.02;100.00;100191.53;5011667;28;20127;-73